Decoded Metar for PAKK (KOYUK in AK, USA) (IATA:KKA) | Meteo·Mobile Aviation Weather
aviador You're here:

PAKK Decoded Metar

KOYUK in AK, USA
Report Time2018-08-22 04:56:00
UTC Time2018-08-22 05:37:58
Flight Rules vfr VFR
Wind340° at 06 kt
W.Decomp.*RWY 01: 4.2 kt HW 4.3 kt LCW
W.Rank340° ranks 9
Current wind is below 340° avg. (7.9)
Visibility9999 m
Phenomena:Light Rain
Clouds:Scattered 023 Hf
Overcast 032 Hf
Expected CloudBase > 400 ft AGL from Temp-Dew spread
Ceiling3,200 ft
Temp14°C (ISA -1)
Dew Point13°C (94% RH)
AAT12.8°C
QNH1007 hPa
Density Alt476 ft
Elevation154 ft
Report Wrong Elevation
Raw Report
PAKK 220456Z AUTO 34006KT 10SM -RA SCT023 OVC032 14/13 A2973 RMK
AO2 SLP082 T01390133 PNO $=

Extra information for PAKK:More info

Metar Taf Metar & Taf Last 4 Metars F.Rules Stats Wind Profile Meteogram Temp Stats Airport Information Weather charts Add Link Nearby VenuesMetar ALERT Operation Metar Decoded Social comments

AIRNAV info for PAKK